Time;durP1;ratioP1;P1;durP2;ratioP2;P2;SDS_P1;SDS_P2;PMS_P1;PMS_P2;Temp;Humidity;BMP_temperature;BMP_pressure;BME280_temperature;BME280_humidity;BME280_pressure;Samples;Min_cycle;Max_cycle;Signal;HPM_P1;HPM_P2
2022/07/15 00:02:40;;;;;;;3.23;1.47;;;;;;;22.63;42.18;96175.34;10310314;28;98466;-75
2022/07/15 00:07:43;;;;;;;2.70;1.45;;;;;;;22.39;42.64;96164.56;10316680;28;96966;-75
2022/07/15 00:12:48;;;;;;;2.38;1.17;;;;;;;22.36;42.58;96164.19;10309230;28;97073;-75
2022/07/15 00:17:53;;;;;;;3.00;1.40;;;;;;;22.11;43.41;96162.44;10308691;28;96910;-75
2022/07/15 00:22:56;;;;;;;3.00;1.50;;;;;;;22.02;43.30;96167.25;10329586;28;96860;-75
2022/07/15 00:28:01;;;;;;;1.85;1.33;;;;;;;21.98;43.66;96166.03;10301426;28;99203;-75
2022/07/15 00:33:06;;;;;;;3.15;1.70;;;;;;;21.91;44.46;96159.19;10321939;28;97221;-75
2022/07/15 00:38:10;;;;;;;4.22;1.60;;;;;;;21.86;44.49;96171.28;10308144;28;97673;-75
2022/07/15 00:43:18;;;;;;;2.35;1.27;;;;;;;21.65;45.09;96169.06;10316434;28;96816;-75
2022/07/15 00:48:22;;;;;;;2.95;1.42;;;;;;;21.53;45.81;96174.25;10316190;28;97010;-75
2022/07/15 00:53:27;;;;;;;;;;;;;;;21.51;44.63;96169.13;10309809;28;98905;-74
2022/07/15 00:58:32;;;;;;;5.97;2.38;;;;;;;21.37;45.84;96166.84;10320572;28;97476;-75
2022/07/15 01:03:37;;;;;;;2.92;1.60;;;;;;;21.30;46.94;96161.56;10308256;28;97046;-75
2022/07/15 01:08:40;;;;;;;3.25;1.50;;;;;;;21.15;47.36;96163.72;10316454;28;96891;-75
2022/07/15 01:13:43;;;;;;;2.20;1.60;;;;;;;21.01;47.49;96169.13;10322598;28;99322;-75
2022/07/15 01:18:47;;;;;;;3.05;1.50;;;;;;;20.80;48.26;96172.16;10318131;28;96882;-75
2022/07/15 01:23:51;;;;;;;;;;;;;;;20.55;48.15;96178.97;10319398;28;97087;-75
2022/07/15 01:28:54;;;;;;;2.70;1.48;;;;;;;20.46;47.85;96177.59;10321656;28;97072;-75
2022/07/15 01:33:57;;;;;;;2.55;1.50;;;;;;;20.51;48.54;96176.97;10328566;28;97024;-76
2022/07/15 01:39:01;;;;;;;5.70;1.67;;;;;;;20.44;48.96;96184.13;10311041;28;99944;-75
2022/07/15 01:44:24;;;;;;;2.22;1.45;;;;;;;20.38;48.90;96191.91;10330777;28;97031;-75
2022/07/15 01:49:29;;;;;;;5.10;1.70;;;;;;;20.43;48.84;96193.94;10319397;28;97913;-75
2022/07/15 01:54:33;;;;;;;4.75;1.55;;;;;;;20.43;47.34;96187.84;10316564;28;98506;-75
2022/07/15 01:59:36;;;;;;;2.33;1.50;;;;;;;20.36;47.89;96191.31;10307763;28;96922;-75
2022/07/15 02:04:39;;;;;;;1.90;1.45;;;;;;;20.28;49.19;96196.84;10319367;28;98133;-75
2022/07/15 02:09:44;;;;;;;2.17;1.50;;;;;;;20.20;49.90;96194.44;10328626;28;96793;-75
2022/07/15 02:14:46;;;;;;;1.83;1.50;;;;;;;19.97;50.68;96187.78;10311460;28;97013;-75
2022/07/15 02:19:49;;;;;;;3.70;1.30;;;;;;;19.93;50.29;96193.72;10317302;28;97832;-75
2022/07/15 02:24:54;;;;;;;1.77;1.50;;;;;;;19.98;50.24;96192.06;10320312;28;97992;-75
2022/07/15 02:29:57;;;;;;;4.28;1.60;;;;;;;19.93;50.43;96193.72;10326472;28;96877;-76
2022/07/15 02:35:00;;;;;;;2.10;1.17;;;;;;;19.62;51.45;96187.19;10327660;28;96840;-75
2022/07/15 02:40:05;;;;;;;2.78;1.23;;;;;;;19.55;51.78;96195.16;10325157;28;98457;-75
2022/07/15 02:45:08;;;;;;;2.40;1.50;;;;;;;19.61;51.27;96186.38;10312603;28;98960;-75
2022/07/15 02:50:11;;;;;;;1.55;1.38;;;;;;;19.63;49.72;96192.28;10320683;28;96856;-75
2022/07/15 02:55:16;;;;;;;2.33;1.55;;;;;;;19.54;52.00;96193.53;10317026;28;97698;-75
2022/07/15 03:00:19;;;;;;;1.58;1.48;;;;;;;19.33;52.15;96204.31;10311039;28;97774;-75
2022/07/15 03:05:22;;;;;;;2.33;1.50;;;;;;;19.25;51.36;96192.91;10324773;28;97473;-75
2022/07/15 03:10:27;;;;;;;3.47;1.58;;;;;;;19.19;52.78;96206.16;10306785;28;98446;-75
2022/07/15 03:15:30;;;;;;;2.92;1.80;;;;;;;19.07;52.31;96203.28;10317113;28;97148;-75
2022/07/15 03:20:32;;;;;;;2.15;1.63;;;;;;;19.15;52.20;96207.59;10302390;28;97743;-75
2022/07/15 03:25:37;;;;;;;2.00;1.55;;;;;;;19.03;53.58;96210.00;10312493;28;99239;-75
2022/07/15 03:30:40;;;;;;;3.63;2.10;;;;;;;18.90;53.39;96215.28;10307605;28;99362;-75
2022/07/15 03:35:43;;;;;;;2.50;1.65;;;;;;;18.81;54.34;96218.09;10310176;28;97010;-75
2022/07/15 03:40:47;;;;;;;3.78;1.80;;;;;;;18.71;54.17;96217.66;10316912;28;97324;-75
2022/07/15 03:45:50;;;;;;;3.10;1.60;;;;;;;18.70;54.59;96221.31;10323254;28;97343;-75
2022/07/15 03:50:53;;;;;;;2.35;1.65;;;;;;;18.64;54.86;96217.63;10306421;28;97056;-75
2022/07/15 03:55:57;;;;;;;2.05;1.60;;;;;;;18.60;54.66;96210.28;10311274;28;96925;-75
2022/07/15 04:01:00;;;;;;;2.40;1.95;;;;;;;18.65;54.38;96208.69;10302881;28;96794;-75
2022/07/15 04:06:04;;;;;;;2.50;1.95;;;;;;;18.65;54.31;96213.16;10308976;28;99342;-75
2022/07/15 04:11:08;;;;;;;3.17;1.80;;;;;;;18.61;54.75;96206.63;10305881;28;97116;-75
2022/07/15 04:16:11;;;;;;;;;;;;;;;18.63;53.54;96207.25;10316275;28;96822;-75
2022/07/15 04:21:14;;;;;;;3.45;2.00;;;;;;;18.54;54.29;96211.09;10321792;28;97833;-75
2022/07/15 04:26:20;;;;;;;1.77;1.67;;;;;;;18.55;54.66;96212.72;10316793;28;99555;-75
2022/07/15 04:31:22;;;;;;;3.65;1.90;;;;;;;18.49;55.22;96209.03;10308770;28;97262;-75
2022/07/15 04:36:25;;;;;;;2.35;1.50;;;;;;;18.53;55.06;96209.44;10300400;28;98641;-75
2022/07/15 04:41:30;;;;;;;2.20;1.75;;;;;;;18.53;55.67;96209.44;10308086;28;97486;-75
2022/07/15 04:46:32;;;;;;;2.97;1.70;;;;;;;18.58;55.87;96213.13;10317886;28;97656;-75
2022/07/15 04:51:35;;;;;;;2.97;1.63;;;;;;;18.66;55.25;96204.22;10323609;28;98554;-74
2022/07/15 04:56:40;;;;;;;3.08;2.00;;;;;;;18.71;55.36;96207.06;10334101;28;97120;-75
2022/07/15 05:01:43;;;;;;;4.32;1.90;;;;;;;18.81;55.70;96202.22;10321544;28;98974;-75
2022/07/15 05:06:46;;;;;;;1.75;1.63;;;;;;;18.90;56.09;96199.41;10324624;28;96818;-76
2022/07/15 05:11:50;;;;;;;5.18;1.92;;;;;;;19.05;56.08;96202.69;10329691;28;97520;-75
2022/07/15 05:16:53;;;;;;;3.60;1.98;;;;;;;19.19;56.12;96207.00;10343647;28;97220;-75
2022/07/15 05:21:56;;;;;;;3.97;2.10;;;;;;;19.37;55.66;96208.22;10330822;28;96768;-75
2022/07/15 05:27:01;;;;;;;4.07;1.88;;;;;;;19.49;56.51;96211.88;10312953;28;96773;-75
2022/07/15 05:32:04;;;;;;;2.83;2.03;;;;;;;19.65;56.14;96212.50;10319560;28;97635;-75
2022/07/15 05:37:07;;;;;;;2.63;2.10;;;;;;;19.89;55.82;96221.66;10304795;28;97006;-75
2022/07/15 05:42:11;;;;;;;5.53;2.10;;;;;;;20.03;54.72;96214.50;10317055;28;97631;-75
2022/07/15 05:47:14;;;;;;;3.97;1.90;;;;;;;20.21;54.65;96219.13;10320030;28;96977;-75
2022/07/15 05:52:17;;;;;;;2.75;1.98;;;;;;;20.31;54.12;96222.16;10305291;28;96866;-75
2022/07/15 05:57:21;;;;;;;4.00;2.08;;;;;;;20.46;56.08;96233.34;10312330;28;97618;-75
2022/07/15 06:02:24;;;;;;;;;;;;;;;20.71;54.58;96230.75;10320281;28;97190;-75
2022/07/15 06:07:27;;;;;;;2.60;1.95;;;;;;;20.90;53.70;96233.56;10307359;28;98170;-75
2022/07/15 06:12:31;;;;;;;5.55;2.10;;;;;;;21.00;53.92;96231.25;10319844;28;97370;-75
2022/07/15 06:17:34;;;;;;;;;;;;;;;21.16;52.96;96229.13;10327828;28;97613;-75
2022/07/15 06:22:37;;;;;;;4.13;1.90;;;;;;;21.32;52.90;96237.38;10326605;28;97702;-76
2022/07/15 06:27:42;;;;;;;3.75;2.00;;;;;;;21.50;52.04;96241.94;10310689;28;98099;-75
2022/07/15 06:32:45;;;;;;;4.15;1.90;;;;;;;21.70;51.07;96241.00;10319976;28;96989;-75
2022/07/15 06:37:47;;;;;;;2.80;1.85;;;;;;;21.82;50.17;96249.88;10325556;28;97354;-75
2022/07/15 06:42:52;;;;;;;2.63;1.95;;;;;;;21.97;49.96;96257.53;10327304;28;98166;-75
2022/07/15 06:47:54;;;;;;;;;;;;;;;22.13;49.78;96248.16;10315990;28;97571;-75
2022/07/15 06:52:57;;;;;;;4.07;1.98;;;;;;;22.22;49.71;96249.50;10330112;28;97001;-75
2022/07/15 06:58:01;;;;;;;3.67;2.28;;;;;;;22.33;49.67;96249.78;10309279;28;99004;-76
2022/07/15 07:03:04;;;;;;;;;;;;;;;22.40;49.63;96255.84;10318518;28;96839;-75
2022/07/15 07:08:07;;;;;;;4.47;2.33;;;;;;;22.47;49.67;96255.81;10332315;28;97785;-76
2022/07/15 07:13:12;;;;;;;2.83;2.40;;;;;;;22.58;49.32;96263.88;10319299;28;96911;-75
2022/07/15 07:18:15;;;;;;;3.92;2.30;;;;;;;22.76;49.34;96262.22;10322176;28;98790;-75
2022/07/15 07:23:19;;;;;;;3.10;2.20;;;;;;;22.92;48.26;96253.59;10314626;28;96882;-76
2022/07/15 07:28:23;;;;;;;3.17;2.20;;;;;;;23.08;47.80;96262.00;10301126;28;96883;-75
2022/07/15 07:33:27;;;;;;;2.92;2.03;;;;;;;23.19;47.14;96253.25;10300791;28;98124;-75
2022/07/15 07:38:30;;;;;;;3.20;2.10;;;;;;;23.37;46.88;96255.06;10300422;28;97107;-75
2022/07/15 07:43:35;;;;;;;3.42;2.00;;;;;;;23.54;45.79;96252.53;10296680;28;98363;-76
2022/07/15 07:48:39;;;;;;;3.25;2.40;;;;;;;23.65;45.58;96253.59;10311189;28;96932;-76
2022/07/15 07:53:41;;;;;;;;;;;;;;;23.73;45.87;96251.41;10314352;28;96829;-75
2022/07/15 07:58:45;;;;;;;2.50;2.08;;;;;;;23.91;45.31;96249.66;10300260;28;97040;-75
2022/07/15 08:03:50;;;;;;;3.88;2.17;;;;;;;24.06;44.34;96252.72;10295287;28;96933;-75
2022/07/15 08:08:53;;;;;;;3.67;2.05;;;;;;;24.15;44.00;96247.03;10297516;28;97367;-75
2022/07/15 08:13:57;;;;;;;2.28;2.00;;;;;;;24.27;43.95;96237.16;10307673;28;101795;-76
2022/07/15 08:19:00;;;;;;;3.65;2.20;;;;;;;24.42;43.84;96240.16;10322232;28;96900;-75
2022/07/15 08:24:03;;;;;;;3.27;2.10;;;;;;;24.45;43.82;96239.69;10314810;28;97285;-75
2022/07/15 08:29:08;;;;;;;3.00;2.23;;;;;;;24.60;43.75;96233.03;10314965;28;97265;-75
2022/07/15 08:34:11;;;;;;;3.97;2.03;;;;;;;24.71;44.02;96240.16;10309353;28;97026;-75
2022/07/15 08:39:15;;;;;;;3.67;1.80;;;;;;;24.86;43.70;96229.81;10305245;28;96773;-75
2022/07/15 08:44:19;;;;;;;4.65;1.77;;;;;;;25.05;43.40;96237.66;10316747;28;96773;-76
2022/07/15 08:49:24;;;;;;;3.38;1.92;;;;;;;25.17;42.79;96241.06;10323884;28;96870;-76
2022/07/15 08:54:29;;;;;;;2.45;1.95;;;;;;;25.24;42.48;96231.03;10328116;28;96916;-75
2022/07/15 08:59:33;;;;;;;3.30;2.10;;;;;;;25.29;42.25;96232.19;10327203;28;97049;-75
2022/07/15 09:05:17;;;;;;;6.05;2.60;;;;;;;25.41;42.05;96225.72;10311135;28;96712;-76
2022/07/15 09:10:20;;;;;;;4.50;2.05;;;;;;;25.59;41.74;96226.56;10306296;28;96901;-76
2022/07/15 09:15:33;;;;;;;4.97;2.25;;;;;;;25.78;41.07;96232.47;10299601;28;97158;-75
2022/07/15 09:20:36;;;;;;;2.85;1.80;;;;;;;25.91;40.66;96223.28;10316359;28;97130;-76
2022/07/15 09:25:40;;;;;;;2.58;1.83;;;;;;;25.93;40.29;96216.63;10316284;28;97257;-76
2022/07/15 09:36:13;;;;;;;4.00;1.90;;;;;;;26.26;40.12;96214.97;10331010;28;97277;-75
2022/07/15 09:41:27;;;;;;;3.00;2.05;;;;;;;26.38;39.64;96206.84;10316989;28;96950;-76
2022/07/15 09:46:43;;;;;;;3.72;1.90;;;;;;;26.59;39.17;96210.56;10325531;28;97087;-76
2022/07/15 09:51:48;;;;;;;2.97;1.85;;;;;;;26.72;38.87;96210.16;10332679;28;97236;-76
2022/07/15 09:56:53;;;;;;;3.13;1.95;;;;;;;26.91;38.89;96197.22;10327186;28;96894;-76
2022/07/15 10:01:59;;;;;;;2.70;1.85;;;;;;;27.07;37.99;96190.16;10323508;28;98318;-77
2022/07/15 10:07:04;;;;;;;7.07;2.00;;;;;;;27.19;37.79;96199.94;10302951;28;96889;-76
2022/07/15 10:12:32;;;;;;;5.05;2.10;;;;;;;27.34;37.31;96194.72;10298893;28;97589;-76
2022/07/15 10:17:52;;;;;;;5.80;2.30;;;;;;;27.44;36.59;96181.38;10321959;28;98137;-76
2022/07/15 10:23:00;;;;;;;5.00;1.70;;;;;;;27.61;36.21;96183.09;10319673;28;97166;-76
2022/07/15 10:28:09;;;;;;;2.10;1.60;;;;;;;27.84;35.41;96185.44;10320730;28;96980;-76
2022/07/15 10:33:17;;;;;;;4.22;1.77;;;;;;;28.07;34.83;96178.06;10335818;28;96932;-76
2022/07/15 10:38:34;;;;;;;3.05;1.67;;;;;;;28.30;33.87;96170.66;10313175;28;97057;-76
2022/07/15 10:43:49;;;;;;;1.95;1.60;;;;;;;28.58;33.81;96164.84;10322053;28;98360;-73
2022/07/15 10:49:29;;;;;;;3.17;2.20;;;;;;;28.91;33.43;96168.19;10326551;28;96965;-74
2022/07/15 10:54:43;;;;;;;2.10;1.73;;;;;;;29.17;32.73;96157.47;10334544;28;96821;-73
2022/07/15 10:59:52;;;;;;;3.08;1.75;;;;;;;29.33;32.73;96153.72;10325617;28;97636;-74
2022/07/15 11:05:20;;;;;;;3.85;1.70;;;;;;;29.57;32.19;96149.69;10319535;28;97622;-74
2022/07/15 11:10:24;;;;;;;2.50;2.05;;;;;;;29.72;31.69;96152.34;10313236;28;96817;-74
2022/07/15 11:15:28;;;;;;;3.13;1.83;;;;;;;29.74;31.64;96140.22;10316664;28;98187;-74
2022/07/15 11:20:39;;;;;;;3.40;1.70;;;;;;;29.86;31.61;96144.50;10313722;28;97506;-74
2022/07/15 11:25:42;;;;;;;5.38;2.15;;;;;;;29.99;30.98;96137.72;10324472;28;97144;-74
2022/07/15 11:30:49;;;;;;;2.42;1.95;;;;;;;30.05;30.76;96134.75;10328348;28;97706;-73
2022/07/15 11:35:55;;;;;;;2.85;2.00;;;;;;;30.17;30.81;96125.59;10328834;28;96773;-74
2022/07/15 11:46:32;;;;;;;2.92;2.00;;;;;;;30.59;30.08;96118.91;10303170;28;96886;-74
2022/07/15 11:51:36;;;;;;;3.20;1.80;;;;;;;30.65;30.24;96121.31;10321620;28;96734;-74
2022/07/15 11:56:39;;;;;;;3.00;1.60;;;;;;;30.92;29.79;96119.28;10330636;28;96977;-74
2022/07/15 12:01:42;;;;;;;3.13;1.33;;;;;;;31.03;29.65;96110.00;10325099;28;96755;-74
2022/07/15 12:06:51;;;;;;;2.05;1.80;;;;;;;31.01;28.95;96104.88;10319321;28;96941;-74
2022/07/15 12:11:54;;;;;;;2.95;1.80;;;;;;;30.92;29.37;96108.47;10327752;28;98764;-74
2022/07/15 12:16:59;;;;;;;3.70;1.60;;;;;;;30.83;29.46;96098.28;10316220;28;96690;-74
2022/07/15 12:22:06;;;;;;;3.75;1.92;;;;;;;30.67;29.81;96092.16;10320380;28;96782;-74
2022/07/15 12:27:14;;;;;;;3.23;1.73;;;;;;;30.74;29.34;96089.16;10326121;28;96752;-74
2022/07/15 12:32:17;;;;;;;5.90;1.75;;;;;;;30.71;29.41;96095.09;10317459;28;97116;-74
2022/07/15 12:37:23;;;;;;;2.88;1.67;;;;;;;30.65;29.07;96082.72;10310640;28;96938;-74
2022/07/15 12:42:29;;;;;;;2.15;1.60;;;;;;;30.71;29.64;96081.63;10310396;28;97475;-74
2022/07/15 12:47:32;;;;;;;2.65;1.73;;;;;;;30.53;29.59;96072.31;10303938;28;96933;-74
2022/07/15 12:52:39;;;;;;;2.03;1.70;;;;;;;30.84;29.18;96070.25;10326588;28;97171;-74
2022/07/15 12:57:42;;;;;;;2.22;1.65;;;;;;;30.98;28.79;96077.66;10326613;28;96803;-74
2022/07/15 13:03:06;;;;;;;2.88;1.50;;;;;;;31.21;28.35;96068.84;10320857;28;97024;-74
2022/07/15 13:08:13;;;;;;;3.15;1.60;;;;;;;31.32;28.51;96071.44;10320724;28;96872;-74
2022/07/15 13:13:17;;;;;;;2.95;1.70;;;;;;;31.55;27.76;96068.00;10315447;28;96997;-74
2022/07/15 13:18:20;;;;;;;2.83;1.73;;;;;;;31.99;26.75;96055.38;10317551;28;97272;-74
2022/07/15 13:23:25;;;;;;;3.15;1.80;;;;;;;32.07;26.64;96062.84;10314852;28;96901;-74
2022/07/15 13:28:28;;;;;;;2.08;1.55;;;;;;;31.96;26.39;96066.75;10322172;28;100302;-74
2022/07/15 13:33:31;;;;;;;;;;;;;;;31.76;26.87;96074.00;10308886;28;96979;-74
2022/07/15 13:38:35;;;;;;;2.20;1.83;;;;;;;31.73;26.24;96062.97;10312907;28;96937;-74
2022/07/15 13:43:38;;;;;;;2.63;1.80;;;;;;;31.02;26.94;96062.53;10299699;28;99037;-74
2022/07/15 13:48:41;;;;;;;2.67;1.58;;;;;;;30.90;26.55;96056.72;10302948;28;96827;-74
2022/07/15 13:53:45;;;;;;;4.57;1.88;;;;;;;31.14;27.28;96057.59;10307094;28;97208;-74
2022/07/15 13:58:49;;;;;;;3.63;1.85;;;;;;;31.23;27.21;96055.88;10301612;28;99216;-74
2022/07/15 14:03:52;;;;;;;3.83;2.05;;;;;;;31.00;26.92;96056.63;10305399;28;97299;-74
2022/07/15 14:08:56;;;;;;;2.97;2.10;;;;;;;30.90;27.15;96054.03;10316720;28;97424;-74
2022/07/15 14:13:59;;;;;;;3.10;2.00;;;;;;;31.20;27.37;96061.81;10313295;28;98749;-74
2022/07/15 14:19:02;;;;;;;2.72;2.10;;;;;;;32.14;26.34;96052.50;10312359;28;97834;-74
2022/07/15 14:24:06;;;;;;;3.45;2.10;;;;;;;33.45;24.58;96061.88;10332004;28;96968;-74
2022/07/15 14:29:09;;;;;;;2.70;2.05;;;;;;;34.16;24.07;96053.50;10325221;28;96852;-74
2022/07/15 14:34:12;;;;;;;2.22;1.95;;;;;;;35.02;22.72;96068.09;10327035;28;97012;-74
2022/07/15 14:39:17;;;;;;;3.58;1.60;;;;;;;34.98;23.07;96076.06;10313049;28;96875;-75
2022/07/15 14:44:19;;;;;;;2.88;1.98;;;;;;;35.45;22.11;96059.44;10313775;28;96848;-75
2022/07/15 14:49:24;;;;;;;3.10;1.90;;;;;;;35.39;22.47;96063.41;10319685;28;96737;-75
2022/07/15 14:54:28;;;;;;;3.95;1.90;;;;;;;35.96;21.83;96071.63;10335882;28;97591;-75
2022/07/15 14:59:31;;;;;;;2.00;1.80;;;;;;;36.10;21.00;96068.81;10330975;28;96911;-74
2022/07/15 15:04:34;;;;;;;3.13;1.73;;;;;;;36.50;20.68;96073.38;10325482;28;96870;-74
2022/07/15 15:09:39;;;;;;;2.25;1.90;;;;;;;37.09;20.41;96054.63;10322121;28;97255;-74
2022/07/15 15:14:42;;;;;;;2.88;1.88;;;;;;;37.38;20.49;96066.78;10326456;28;96812;-75
2022/07/15 15:19:44;;;;;;;3.25;1.85;;;;;;;38.27;19.53;96069.66;10329414;28;96872;-74
2022/07/15 15:24:49;;;;;;;3.72;1.70;;;;;;;38.41;18.64;96076.75;10325520;28;97533;-74
2022/07/15 15:29:52;;;;;;;2.00;1.70;;;;;;;37.68;19.74;96081.28;10307532;28;97373;-74
2022/07/15 15:34:54;;;;;;;3.45;1.60;;;;;;;37.74;19.65;96073.75;10301699;28;97283;-74
2022/07/15 15:39:59;;;;;;;2.30;1.70;;;;;;;37.44;19.61;96067.41;10317819;28;96840;-75
2022/07/15 15:45:01;;;;;;;2.40;1.90;;;;;;;38.27;19.00;96079.75;10320557;28;96872;-74
2022/07/15 15:50:05;;;;;;;3.60;2.20;;;;;;;38.74;18.31;96065.94;10309480;28;97032;-75
2022/07/15 15:55:10;;;;;;;2.30;1.80;;;;;;;38.53;18.58;96054.19;10305394;28;96963;-75
2022/07/15 16:00:13;;;;;;;3.33;1.80;;;;;;;38.57;18.17;96060.59;10297962;28;96894;-75
2022/07/15 16:05:16;;;;;;;2.03;1.80;;;;;;;39.15;17.84;96069.78;10303936;28;96901;-75
2022/07/15 16:10:22;;;;;;;4.78;2.00;;;;;;;39.26;18.21;96070.13;10305410;28;97853;-75
2022/07/15 16:15:25;;;;;;;2.35;1.73;;;;;;;39.50;17.98;96068.59;10308414;28;98128;-75
2022/07/15 16:20:28;;;;;;;2.10;1.80;;;;;;;38.76;18.72;96057.41;10317401;28;99245;-76
2022/07/15 16:25:35;;;;;;;2.67;2.10;;;;;;;37.77;19.38;96058.66;10308366;28;97864;-75
2022/07/15 16:30:39;;;;;;;3.22;1.90;;;;;;;36.85;20.19;96051.63;10300537;28;97105;-77
2022/07/15 16:35:42;;;;;;;4.65;2.05;;;;;;;36.07;20.35;96059.38;10293772;28;96862;-76
2022/07/15 16:40:47;;;;;;;4.10;1.95;;;;;;;36.03;20.78;96057.59;10300793;28;97259;-76
2022/07/15 16:45:50;;;;;;;4.60;2.10;;;;;;;35.00;21.52;96064.91;10311679;28;97821;-75
2022/07/15 16:50:53;;;;;;;3.60;1.85;;;;;;;34.55;21.81;96068.34;10307784;28;97555;-75
2022/07/15 16:55:57;;;;;;;6.80;2.15;;;;;;;34.34;22.20;96070.72;10327803;28;98327;-75
2022/07/15 17:01:00;;;;;;;3.38;1.95;;;;;;;33.89;22.37;96070.56;10308307;28;96869;-75
2022/07/15 17:06:03;;;;;;;3.35;2.30;;;;;;;33.77;22.58;96090.00;10300866;28;97177;-75
2022/07/15 17:11:08;;;;;;;2.72;2.05;;;;;;;33.80;22.83;96073.97;10308915;28;96883;-75
2022/07/15 17:16:11;;;;;;;1.80;1.60;;;;;;;33.68;23.28;96080.97;10300737;28;97263;-75
2022/07/15 17:21:14;;;;;;;2.65;1.92;;;;;;;33.70;23.42;96073.34;10321485;28;96935;-74
2022/07/15 17:26:18;;;;;;;2.60;2.10;;;;;;;33.51;23.26;96084.25;10318479;28;99391;-76
2022/07/15 17:31:22;;;;;;;4.60;2.30;;;;;;;33.68;23.03;96062.81;10310181;28;96957;-75
2022/07/15 17:36:26;;;;;;;4.75;2.20;;;;;;;34.32;22.49;96089.22;10305802;28;96938;-75
2022/07/15 17:41:31;;;;;;;5.03;2.30;;;;;;;34.87;22.50;96061.94;10304402;28;97209;-75
2022/07/15 17:46:36;;;;;;;2.88;2.00;;;;;;;35.05;21.97;96094.63;10307057;28;97313;-76
2022/07/15 17:51:39;;;;;;;3.33;2.00;;;;;;;35.86;21.36;96090.94;10308112;28;97368;-75
2022/07/15 17:56:44;;;;;;;3.22;2.13;;;;;;;35.99;21.23;96100.13;10317219;28;96910;-75
2022/07/15 18:01:47;;;;;;;3.42;2.33;;;;;;;35.51;21.84;96098.94;10304746;28;96917;-76
2022/07/15 18:06:50;;;;;;;3.05;2.25;;;;;;;35.63;21.69;96101.84;10302401;28;96961;-76
2022/07/15 18:11:54;;;;;;;5.32;2.00;;;;;;;34.26;22.77;96102.06;10325928;28;98037;-75
2022/07/15 18:16:57;;;;;;;2.28;1.98;;;;;;;32.37;24.15;96095.16;10312773;28;96877;-75
2022/07/15 18:22:00;;;;;;;3.55;2.40;;;;;;;30.88;26.06;96104.72;10326069;28;98708;-75
2022/07/15 18:27:04;;;;;;;;;;;;;;;29.85;26.48;96099.78;10334585;28;98588;-75
2022/07/15 18:32:07;;;;;;;2.75;2.33;;;;;;;29.04;27.75;96096.16;10312996;28;97016;-75
2022/07/15 18:37:10;;;;;;;2.72;2.25;;;;;;;28.87;28.20;96094.47;10304725;28;96905;-75
2022/07/15 18:42:14;;;;;;;3.13;1.85;;;;;;;28.43;28.88;96095.75;10319582;28;96825;-75
2022/07/15 18:47:17;;;;;;;4.53;2.40;;;;;;;28.23;29.19;96091.09;10311833;28;97135;-75
2022/07/15 18:52:20;;;;;;;4.23;2.63;;;;;;;28.03;29.21;96099.09;10318629;28;99734;-74
2022/07/15 18:57:25;;;;;;;5.63;2.60;;;;;;;27.77;29.83;96104.34;10302453;28;99305;-73
2022/07/15 19:02:28;;;;;;;3.78;2.28;;;;;;;27.56;30.32;96102.56;10307443;28;97965;-74
2022/07/15 19:07:31;;;;;;;4.88;2.40;;;;;;;27.49;30.44;96109.00;10310666;28;97151;-74
2022/07/15 19:12:35;;;;;;;3.42;2.20;;;;;;;27.32;30.67;96111.00;10317169;28;96942;-74
2022/07/15 19:17:39;;;;;;;4.75;2.53;;;;;;;27.19;30.87;96114.94;10323419;28;97923;-74
2022/07/15 19:22:42;;;;;;;3.38;2.25;;;;;;;27.22;30.66;96124.34;10321837;28;97917;-74
2022/07/15 19:27:46;;;;;;;3.47;2.20;;;;;;;27.35;30.95;96117.72;10322414;28;97148;-74
2022/07/15 19:32:49;;;;;;;2.78;2.30;;;;;;;27.34;31.13;96126.84;10325054;28;99138;-74
2022/07/15 19:37:53;;;;;;;4.13;2.50;;;;;;;27.16;31.24;96131.56;10311230;28;97107;-74
2022/07/15 19:42:59;;;;;;;6.35;3.70;;;;;;;27.02;31.49;96131.16;10316735;28;97771;-74
2022/07/15 19:48:02;;;;;;;6.20;3.83;;;;;;;26.82;31.53;96136.31;10317780;28;97191;-74
2022/07/15 19:53:06;;;;;;;4.87;2.60;;;;;;;26.80;31.61;96146.47;10314431;28;97004;-73
2022/07/15 19:58:10;;;;;;;8.63;6.55;;;;;;;26.87;31.39;96149.75;10324224;28;97416;-74
2022/07/15 20:03:13;;;;;;;4.35;3.25;;;;;;;26.82;31.33;96158.53;10321336;28;96878;-73
2022/07/15 20:08:16;;;;;;;5.10;3.17;;;;;;;26.72;31.82;96161.91;10318814;28;97001;-74
2022/07/15 20:13:20;;;;;;;3.00;2.30;;;;;;;26.63;31.69;96166.13;10327279;28;97087;-74
2022/07/15 20:18:23;;;;;;;3.42;2.83;;;;;;;26.51;31.84;96173.50;10314388;28;98736;-74
2022/07/15 20:52:48;;;;;;;3.40;2.55;;;;;;;24.36;34.95;96214.38;10349727;28;96996;-68
2022/07/15 20:57:51;;;;;;;3.85;2.72;;;;;;;24.26;36.42;96214.16;10342241;28;97491;-69
2022/07/15 21:03:00;;;;;;;5.70;2.47;;;;;;;24.10;36.76;96213.84;10344462;28;97063;-68
2022/07/15 21:08:05;;;;;;;4.37;2.73;;;;;;;24.19;36.84;96221.50;10360286;28;98377;-69
2022/07/15 21:13:08;;;;;;;3.30;2.50;;;;;;;24.32;35.89;96234.59;10354774;28;96884;-69
2022/07/15 21:18:11;;;;;;;5.35;2.70;;;;;;;24.37;36.70;96232.03;10357365;28;96974;-69
2022/07/15 21:23:15;;;;;;;3.65;2.47;;;;;;;24.27;37.17;96237.97;10352273;28;96832;-70
2022/07/15 21:28:18;;;;;;;3.28;2.72;;;;;;;23.73;38.34;96238.06;10359556;28;96917;-69
2022/07/15 21:33:21;;;;;;;4.47;2.40;;;;;;;23.36;38.79;96242.78;10350105;28;97175;-69
2022/07/15 21:38:25;;;;;;;5.18;2.72;;;;;;;23.37;38.55;96247.88;10349448;28;97751;-69
2022/07/15 21:43:28;;;;;;;4.15;2.85;;;;;;;23.31;39.18;96248.00;10342353;28;97566;-69
2022/07/15 21:48:31;;;;;;;4.47;2.70;;;;;;;23.19;38.72;96251.38;10343269;28;97503;-69
2022/07/15 21:53:36;;;;;;;3.08;2.33;;;;;;;23.11;38.96;96258.88;10343372;28;98507;-69
2022/07/15 21:58:38;;;;;;;3.88;2.60;;;;;;;22.95;39.44;96261.16;10339973;28;96888;-69
2022/07/15 22:03:41;;;;;;;4.22;2.60;;;;;;;22.96;39.51;96260.13;10317904;28;96914;-69
2022/07/15 22:08:46;;;;;;;4.50;2.43;;;;;;;22.69;40.10;96259.63;10323070;28;98488;-70
2022/07/15 22:13:49;;;;;;;3.80;2.42;;;;;;;22.41;40.57;96260.16;10309845;28;97549;-69
2022/07/15 22:18:53;;;;;;;3.87;2.23;;;;;;;22.21;41.14;96263.00;10315282;28;97499;-69
2022/07/15 22:23:57;;;;;;;3.57;2.57;;;;;;;22.02;41.40;96271.00;10312277;28;98098;-69
2022/07/15 22:29:00;;;;;;;5.32;2.42;;;;;;;21.80;41.83;96278.53;10316108;28;97934;-69
2022/07/15 22:34:03;;;;;;;4.47;2.70;;;;;;;21.65;42.34;96280.72;10312287;28;97656;-66
2022/07/15 22:39:09;;;;;;;3.85;2.50;;;;;;;21.40;43.07;96278.81;10297419;28;97174;-68
2022/07/15 22:44:12;;;;;;;3.10;2.30;;;;;;;21.28;43.72;96285.84;10298273;28;97095;-68
2022/07/15 22:49:15;;;;;;;3.45;2.45;;;;;;;21.20;43.71;96278.94;10300193;28;96893;-69
2022/07/15 22:54:19;;;;;;;3.63;2.78;;;;;;;21.18;43.58;96285.50;10296339;28;97276;-68
2022/07/15 22:59:24;;;;;;;3.63;2.60;;;;;;;21.31;42.94;96288.06;10292952;28;98293;-69
2022/07/15 23:04:29;;;;;;;3.95;2.65;;;;;;;21.13;43.56;96286.13;10305105;28;97485;-68
2022/07/15 23:09:34;;;;;;;3.67;2.65;;;;;;;20.94;45.16;96285.22;10292844;28;96917;-70
2022/07/15 23:14:37;;;;;;;;;;;;;;;20.73;44.72;96294.25;10292611;28;96852;-68
2022/07/15 23:19:39;;;;;;;3.97;2.67;;;;;;;20.54;45.20;96295.97;10295571;28;97132;-69
2022/07/15 23:24:45;;;;;;;5.45;2.85;;;;;;;20.62;45.23;96298.38;10293560;28;96797;-69
2022/07/15 23:29:47;;;;;;;3.05;2.60;;;;;;;20.57;45.36;96290.25;10293439;28;96812;-69
2022/07/15 23:34:50;;;;;;;3.95;2.67;;;;;;;20.38;46.16;96297.22;10292913;28;98950;-70
2022/07/15 23:39:55;;;;;;;3.55;2.85;;;;;;;20.22;46.34;96290.53;10293293;28;98975;-69
2022/07/15 23:44:58;;;;;;;4.57;2.70;;;;;;;20.07;46.12;96301.38;10297216;28;97010;-69
2022/07/15 23:50:00;;;;;;;3.85;2.78;;;;;;;20.17;46.19;96293.00;10295689;28;96925;-68
2022/07/15 23:55:06;;;;;;;3.08;2.38;;;;;;;20.31;45.45;96291.94;10289377;28;98008;-69
